Time;durP1;ratioP1;P1;durP2;ratioP2;P2;SDS_P1;SDS_P2;PMS_P1;PMS_P2;Temp;Humidity;BMP_temperature;BMP_pressure;BME280_temperature;BME280_humidity;BME280_pressure;Samples;Min_cycle;Max_cycle;Signal;HPM_P1;HPM_P2
2021/12/15 00:01:10;;;;;;;2.40;1.65;;;;;;;7.32;89.89;101714.28;4938249;28;20574;-85
2021/12/15 00:03:41;;;;;;;2.55;1.60;;;;;;;7.31;89.75;101709.88;4953197;28;21048;-90
2021/12/15 00:06:17;;;;;;;3.08;1.90;;;;;;;7.31;89.45;101710.69;4939090;28;20047;-87
2021/12/15 00:08:50;;;;;;;1.85;1.65;;;;;;;7.29;89.67;101717.63;4926778;28;20074;-86
2021/12/15 00:11:19;;;;;;;2.47;2.00;;;;;;;7.27;89.56;101723.44;4941242;28;20047;-87
2021/12/15 00:13:47;;;;;;;2.33;1.92;;;;;;;7.26;89.82;101729.22;4958448;28;20057;-87
2021/12/15 00:16:16;;;;;;;1.95;1.50;;;;;;;7.25;89.44;101736.66;4947555;28;20073;-87
2021/12/15 00:18:44;;;;;;;4.13;2.85;;;;;;;7.26;89.68;101732.00;4940070;28;20051;-86
2021/12/15 00:21:15;;;;;;;2.70;1.90;;;;;;;7.25;89.36;101741.38;4958239;28;20129;-87
2021/12/15 00:23:44;;;;;;;3.05;2.20;;;;;;;7.25;89.70;101741.38;4963427;28;20070;-87
2021/12/15 00:26:12;;;;;;;4.20;2.17;;;;;;;7.25;89.45;101753.19;4934954;28;20043;-87
2021/12/15 00:28:39;;;;;;;3.58;2.03;;;;;;;7.25;89.66;101746.91;4941650;28;20040;-86
2021/12/15 00:31:06;;;;;;;2.85;2.17;;;;;;;7.26;89.44;101740.25;4948004;28;20096;-86
2021/12/15 00:33:34;;;;;;;2.15;1.88;;;;;;;7.24;89.49;101734.22;4939466;28;20051;-87
2021/12/15 00:36:03;;;;;;;2.00;1.80;;;;;;;7.24;89.40;101734.22;4954612;28;20044;-87
2021/12/15 00:38:30;;;;;;;2.42;2.22;;;;;;;7.24;89.70;101720.47;4948983;28;20050;-86
2021/12/15 00:40:58;;;;;;;1.60;1.40;;;;;;;7.23;89.66;101724.31;4932640;28;20043;-86
2021/12/15 00:43:25;;;;;;;3.03;1.67;;;;;;;7.20;89.69;101716.69;4947943;28;20051;-87
2021/12/15 00:45:53;;;;;;;2.55;1.80;;;;;;;7.22;90.01;101715.25;4963500;28;20050;-87
2021/12/15 00:48:20;;;;;;;2.13;1.92;;;;;;;7.23;89.83;101718.81;4949546;28;20136;-87
2021/12/15 00:50:47;;;;;;;2.45;1.85;;;;;;;7.23;89.85;101718.81;4964286;28;20067;-87
2021/12/15 00:53:15;;;;;;;2.13;1.92;;;;;;;7.25;90.07;101733.91;4926573;28;20496;-87
2021/12/15 00:55:43;;;;;;;3.65;2.05;;;;;;;7.25;89.96;101724.88;4947275;28;20058;-88
2021/12/15 00:58:12;;;;;;;3.03;1.48;;;;;;;7.24;90.02;101714.94;4959019;28;20155;-87
2021/12/15 01:01:01;;;;;;;2.40;2.20;;;;;;;7.24;90.25;101724.03;4941580;28;20050;-86
2021/12/15 01:03:30;;;;;;;2.10;1.83;;;;;;;7.24;90.09;101717.72;4958214;28;20049;-87
2021/12/15 01:06:05;;;;;;;1.58;1.48;;;;;;;7.25;90.21;101713.84;4946776;28;20073;-86
2021/12/15 01:08:33;;;;;;;2.47;2.08;;;;;;;7.26;90.28;101704.44;4963580;28;20040;-87
2021/12/15 01:11:13;;;;;;;1.67;1.58;;;;;;;7.25;90.32;101713.84;4961790;28;20031;-87
2021/12/15 01:22:08;;;;;;;2.03;1.42;;;;;;;7.29;90.42;101725.88;4957377;28;20047;-86
2021/12/15 01:24:35;;;;;;;1.85;1.00;;;;;;;7.29;90.51;101721.19;4951408;28;20038;-87
2021/12/15 01:27:02;;;;;;;1.38;1.20;;;;;;;7.31;90.43;101712.63;4945842;28;20125;-85
2021/12/15 01:29:29;;;;;;;2.15;1.23;;;;;;;7.33;90.53;101713.16;4961273;28;20047;-87
2021/12/15 01:31:56;;;;;;;1.42;1.30;;;;;;;7.35;90.47;101713.69;4950020;28;20039;-87
2021/12/15 01:34:23;;;;;;;2.25;1.08;;;;;;;7.39;90.45;101720.22;4950291;28;20087;-87
2021/12/15 01:36:50;;;;;;;0.85;0.77;;;;;;;7.40;90.38;101721.03;4938598;28;20054;-87
2021/12/15 01:39:18;;;;;;;1.08;0.90;;;;;;;7.40;90.36;101713.59;4956655;28;20085;-87
2021/12/15 01:41:45;;;;;;;1.65;1.08;;;;;;;7.40;90.19;101721.84;4960089;28;20047;-87
2021/12/15 01:46:59;;;;;;;1.75;0.60;;;;;;;7.44;90.28;101733.09;4956223;28;20114;-87
2021/12/15 01:49:42;;;;;;;2.28;0.80;;;;;;;7.43;90.36;101731.47;4940178;28;20087;-86
2021/12/15 01:52:31;;;;;;;1.63;0.70;;;;;;;7.41;90.00;101729.00;4949405;28;20102;-86
2021/12/15 01:55:02;;;;;;;3.13;0.70;;;;;;;7.42;89.82;101740.81;4952210;28;20125;-87
2021/12/15 01:57:31;;;;;;;1.00;0.57;;;;;;;7.40;89.94;101734.81;4948352;28;20055;-86
2021/12/15 02:00:00;;;;;;;1.17;0.68;;;;;;;7.42;89.77;101747.16;4937145;28;20151;-86
2021/12/15 02:02:27;;;;;;;3.53;0.80;;;;;;;7.40;89.69;101741.16;4938911;28;20842;-87
2021/12/15 02:04:54;;;;;;;2.13;1.35;;;;;;;7.41;89.92;101728.19;4940918;28;20376;-87
2021/12/15 02:07:23;;;;;;;0.88;0.60;;;;;;;7.40;90.24;101732.88;4954806;28;20078;-86
2021/12/15 02:10:01;;;;;;;2.25;0.70;;;;;;;7.41;89.77;101737.28;4951124;28;20885;-87
2021/12/15 02:12:48;;;;;;;1.48;0.65;;;;;;;7.39;89.69;101745.00;4952308;28;20125;-87
2021/12/15 02:15:39;;;;;;;4.63;0.90;;;;;;;7.38;89.94;101746.13;4960902;28;20471;-87
2021/12/15 02:18:10;;;;;;;3.00;0.57;;;;;;;7.35;90.02;101743.97;4960295;28;20038;-86
2021/12/15 02:20:47;;;;;;;1.45;0.60;;;;;;;7.39;90.07;101746.97;4948804;28;20055;-85
2021/12/15 02:23:18;;;;;;;1.00;0.60;;;;;;;7.41;89.98;101755.75;4940382;28;20043;-86
2021/12/15 02:25:45;;;;;;;7.53;2.75;;;;;;;7.42;89.77;101758.19;4949924;28;20890;-86
2021/12/15 02:28:12;;;;;;;1.27;0.43;;;;;;;7.42;89.91;101758.19;4962015;28;20050;-87
2021/12/15 02:31:11;;;;;;;2.15;0.60;;;;;;;7.44;89.69;101761.44;4960421;28;20121;-86
2021/12/15 02:39:06;;;;;;;0.40;0.40;;;;;;;7.41;89.64;101764.84;4944025;28;20133;-87
2021/12/15 02:41:34;;;;;;;4.78;0.77;;;;;;;7.41;89.62;101773.09;4953701;28;20047;-86
2021/12/15 02:44:14;;;;;;;2.60;0.73;;;;;;;7.39;89.32;101761.53;4959900;28;20066;-86
2021/12/15 02:46:43;;;;;;;1.02;0.40;;;;;;;7.36;89.27;101756.63;4962514;28;20050;-87
2021/12/15 02:49:14;;;;;;;5.00;0.75;;;;;;;7.33;89.41;101748.97;4959333;28;20039;-86
2021/12/15 02:51:43;;;;;;;1.90;0.50;;;;;;;7.31;89.49;101757.53;4959596;28;20078;-87
2021/12/15 02:54:12;;;;;;;0.90;0.50;;;;;;;7.30;89.44;101760.59;4928585;28;20513;-86
2021/12/15 02:56:40;;;;;;;1.25;0.60;;;;;;;7.29;89.59;101757.00;4950019;28;20129;-86
2021/12/15 02:59:09;;;;;;;1.00;0.60;;;;;;;7.28;89.47;101757.31;4959767;28;20034;-86
2021/12/15 03:02:05;;;;;;;3.65;0.65;;;;;;;7.27;89.66;101750.16;4942960;28;20055;-86
2021/12/15 03:07:11;;;;;;;2.17;0.40;;;;;;;7.25;90.01;101752.41;4949013;28;20063;-86
2021/12/15 03:18:02;;;;;;;2.00;0.50;;;;;;;7.24;89.76;101757.09;4961027;28;20034;-86
2021/12/15 03:20:34;;;;;;;1.95;0.47;;;;;;;7.24;89.56;101750.75;4950586;28;20042;-86
2021/12/15 03:23:02;;;;;;;3.53;0.70;;;;;;;7.26;89.91;101741.06;4941785;28;20054;-86
2021/12/15 03:25:31;;;;;;;2.60;0.50;;;;;;;7.28;89.77;101740.78;4943116;28;20154;-86
2021/12/15 03:33:39;;;;;;;6.53;0.93;;;;;;;7.27;89.77;101755.66;4952170;28;20160;-86
2021/12/15 03:36:12;;;;;;;1.80;0.50;;;;;;;7.26;89.92;101743.00;4948005;28;20031;-86
2021/12/15 03:38:40;;;;;;;4.85;0.85;;;;;;;7.27;89.85;101747.41;4939965;28;20134;-87
2021/12/15 03:41:10;;;;;;;2.35;0.88;;;;;;;7.28;89.54;101747.09;4958147;28;20051;-87
2021/12/15 03:43:38;;;;;;;2.17;1.15;;;;;;;7.27;90.01;101751.00;4947010;28;20039;-86
2021/12/15 03:46:09;;;;;;;2.88;0.88;;;;;;;7.27;89.93;101750.16;4918329;28;20046;-86
2021/12/15 03:48:39;;;;;;;1.70;0.40;;;;;;;7.28;89.85;101755.38;4952516;28;20058;-87
2021/12/15 03:51:12;;;;;;;4.38;0.80;;;;;;;7.28;90.03;101762.84;4931591;28;20076;-86
2021/12/15 03:53:41;;;;;;;2.40;0.52;;;;;;;7.28;90.03;101763.63;4953537;28;20809;-86
2021/12/15 03:56:10;;;;;;;7.03;0.60;;;;;;;7.26;90.20;101762.28;4947140;28;20130;-86
2021/12/15 03:58:37;;;;;;;2.00;0.82;;;;;;;7.25;89.98;101757.91;4944431;28;20040;-86
2021/12/15 04:01:12;;;;;;;1.55;0.35;;;;;;;7.25;90.18;101766.97;4938498;28;20479;-85
2021/12/15 04:03:43;;;;;;;7.07;1.02;;;;;;;7.24;90.04;101761.78;4947190;28;20056;-86
2021/12/15 04:06:15;;;;;;;1.55;0.68;;;;;;;7.24;90.18;101751.59;4939002;28;20928;-85
2021/12/15 04:08:42;;;;;;;2.05;0.60;;;;;;;7.26;89.95;101759.53;4948826;28;20047;-86
2021/12/15 04:11:12;;;;;;;3.78;0.82;;;;;;;7.27;90.45;101755.66;4949132;28;20122;-86
2021/12/15 04:13:41;;;;;;;2.58;0.50;;;;;;;7.30;90.28;101763.34;4929428;28;20063;-87
2021/12/15 04:16:15;;;;;;;6.18;2.45;;;;;;;7.31;90.13;101773.22;4935860;28;20487;-87
2021/12/15 04:18:42;;;;;;;2.47;0.50;;;;;;;7.32;90.18;101777.63;4956229;28;20047;-86
2021/12/15 04:21:10;;;;;;;5.65;0.50;;;;;;;7.32;90.13;101763.84;4942834;28;20038;-86
2021/12/15 04:23:37;;;;;;;2.28;0.77;;;;;;;7.37;90.29;101766.53;4924777;28;20095;-85
2021/12/15 04:26:03;;;;;;;1.75;0.40;;;;;;;7.34;90.26;101756.94;4959235;28;20045;-86
2021/12/15 04:28:35;;;;;;;2.80;0.50;;;;;;;7.35;90.28;101752.25;4941345;28;20189;-85
2021/12/15 04:31:08;;;;;;;1.60;1.00;;;;;;;7.41;90.45;101750.22;4949457;28;20086;-86
2021/12/15 04:33:43;;;;;;;3.90;0.68;;;;;;;7.43;90.48;101748.81;4949683;28;20158;-86
2021/12/15 04:36:12;;;;;;;2.80;0.40;;;;;;;7.43;90.24;101759.84;4961517;28;20066;-86
2021/12/15 04:38:40;;;;;;;0.68;0.40;;;;;;;7.44;90.08;101749.63;4930762;28;20048;-85
2021/12/15 04:41:12;;;;;;;1.55;0.50;;;;;;;7.45;90.34;101760.34;4963007;28;20483;-86
2021/12/15 04:44:01;;;;;;;1.97;0.50;;;;;;;7.49;90.29;101764.16;4952407;28;20537;-86
2021/12/15 04:46:36;;;;;;;2.67;0.95;;;;;;;7.48;90.04;101751.47;4968156;28;20281;-86
2021/12/15 04:49:06;;;;;;;1.27;0.50;;;;;;;7.49;90.34;101757.81;4966865;28;20050;-86
2021/12/15 04:51:33;;;;;;;2.60;0.50;;;;;;;7.51;90.28;101753.66;4976257;28;20157;-85
2021/12/15 04:54:00;;;;;;;2.03;0.63;;;;;;;7.53;90.31;101753.31;4944232;28;20047;-86
2021/12/15 04:56:27;;;;;;;1.98;0.73;;;;;;;7.56;90.37;101758.25;4951437;28;20050;-86
2021/12/15 04:58:55;;;;;;;4.90;0.70;;;;;;;7.57;90.39;101759.91;4930086;28;20047;-86
2021/12/15 05:01:24;;;;;;;1.25;0.40;;;;;;;7.57;90.38;101770.91;4945804;28;20038;-86
2021/12/15 05:03:51;;;;;;;3.88;0.50;;;;;;;7.57;90.38;101766.19;4944379;28;20045;-86
2021/12/15 05:06:22;;;;;;;5.13;1.55;;;;;;;7.61;90.32;101761.75;4935962;28;20043;-85
2021/12/15 05:08:49;;;;;;;5.55;1.25;;;;;;;7.64;90.31;101757.56;4963562;28;20105;-85
2021/12/15 05:11:17;;;;;;;1.20;0.50;;;;;;;7.69;90.31;101760.22;4946292;28;20668;-86
2021/12/15 05:13:44;;;;;;;1.92;0.55;;;;;;;7.73;90.40;101758.53;4950208;28;20098;-87
2021/12/15 05:16:11;;;;;;;4.30;0.70;;;;;;;7.74;90.25;101766.47;4947375;28;20417;-86
2021/12/15 05:18:38;;;;;;;4.25;0.60;;;;;;;7.73;90.20;101769.56;4945658;28;20042;-86
2021/12/15 05:21:07;;;;;;;3.95;0.68;;;;;;;7.73;90.02;101762.06;4961434;28;20065;-86
2021/12/15 05:23:39;;;;;;;6.82;1.70;;;;;;;7.74;90.42;101772.00;4962961;28;20043;-85
2021/12/15 05:26:07;;;;;;;8.43;1.77;;;;;;;7.73;90.06;101781.38;4962803;28;20035;-86
2021/12/15 05:28:34;;;;;;;6.55;1.92;;;;;;;7.72;90.12;101774.25;4963127;28;20066;-86
2021/12/15 05:31:00;;;;;;;1.98;0.60;;;;;;;7.71;89.97;101769.00;4958728;28;20042;-86
2021/12/15 05:33:27;;;;;;;2.75;0.80;;;;;;;7.71;90.31;101778.09;4956644;28;20038;-85
2021/12/15 05:35:56;;;;;;;1.80;0.40;;;;;;;7.75;90.17;101778.31;4964465;28;20055;-86
2021/12/15 05:38:25;;;;;;;7.88;0.63;;;;;;;7.75;90.26;101778.31;4949641;28;20097;-86
2021/12/15 05:40:56;;;;;;;4.70;0.90;;;;;;;7.76;90.06;101775.25;4959325;28;20057;-85
2021/12/15 05:43:23;;;;;;;3.95;0.90;;;;;;;7.74;90.04;101783.03;4941537;28;20079;-85
2021/12/15 05:45:51;;;;;;;8.45;0.88;;;;;;;7.77;90.24;101774.16;4954753;28;20126;-85
2021/12/15 05:48:20;;;;;;;2.72;0.73;;;;;;;7.79;90.14;101774.66;4950860;28;20166;-85
2021/12/15 05:50:50;;;;;;;2.78;1.40;;;;;;;7.79;89.86;101776.59;4956697;28;20065;-86
2021/12/15 05:53:18;;;;;;;1.30;0.60;;;;;;;7.79;90.06;101774.66;4945174;28;20402;-86
2021/12/15 05:55:45;;;;;;;5.50;0.77;;;;;;;7.80;89.98;101776.31;4967151;28;20042;-86
2021/12/15 05:58:12;;;;;;;5.38;1.23;;;;;;;7.81;90.17;101783.44;4935678;28;20098;-86
2021/12/15 06:00:42;;;;;;;6.40;1.45;;;;;;;7.83;90.01;101783.97;4935663;28;20158;-85
2021/12/15 06:03:09;;;;;;;3.67;0.70;;;;;;;7.82;89.86;101778.75;4947536;28;20058;-85
2021/12/15 06:05:37;;;;;;;3.45;0.93;;;;;;;7.83;90.08;101778.47;4937293;28;20584;-86
2021/12/15 06:08:05;;;;;;;3.78;0.70;;;;;;;7.87;90.10;101786.94;4954199;28;20047;-86
2021/12/15 06:10:35;;;;;;;5.05;0.65;;;;;;;7.88;90.09;101775.63;4939825;28;20043;-87
2021/12/15 06:13:08;;;;;;;8.93;0.80;;;;;;;7.90;89.80;101780.81;4936357;28;20051;-85
2021/12/15 06:15:37;;;;;;;6.70;0.90;;;;;;;7.91;89.91;101786.06;4958301;28;20142;-85
2021/12/15 06:18:09;;;;;;;2.92;0.68;;;;;;;7.93;89.98;101792.06;4950757;28;20043;-85
2021/12/15 06:20:37;;;;;;;8.68;0.93;;;;;;;7.92;89.89;101790.41;4944139;28;20073;-86
2021/12/15 06:23:10;;;;;;;7.15;1.10;;;;;;;7.95;89.87;101794.50;4949659;28;20143;-86
2021/12/15 06:25:40;;;;;;;4.03;0.73;;;;;;;7.97;89.94;101787.56;4966013;28;20125;-86
2021/12/15 06:28:07;;;;;;;3.70;0.73;;;;;;;7.98;89.71;101797.50;4960358;28;20097;-86
2021/12/15 06:30:36;;;;;;;1.85;0.30;;;;;;;8.02;89.84;101791.38;4941880;28;20054;-86
2021/12/15 06:33:03;;;;;;;2.78;0.50;;;;;;;8.07;89.77;101796.81;4965614;28;20545;-86
2021/12/15 06:35:30;;;;;;;6.38;1.00;;;;;;;8.07;89.56;101791.28;4944172;28;20050;-86
2021/12/15 06:37:57;;;;;;;5.43;0.60;;;;;;;8.07;89.47;101799.56;4945373;28;20129;-83
2021/12/15 06:40:24;;;;;;;3.13;0.65;;;;;;;8.09;89.66;101794.56;4943771;28;20047;-84
2021/12/15 06:42:51;;;;;;;4.10;0.90;;;;;;;8.11;89.45;101804.16;4959873;28;20154;-84
2021/12/15 06:45:22;;;;;;;4.70;0.82;;;;;;;8.13;89.59;101804.66;4935005;28;20061;-83
2021/12/15 06:58:51;;;;;;;6.63;0.95;;;;;;;8.21;89.18;101808.66;4947798;28;20063;-84
2021/12/15 07:01:20;;;;;;;3.35;0.57;;;;;;;8.21;89.45;101803.16;4937022;28;20055;-84
2021/12/15 07:03:49;;;;;;;7.18;0.90;;;;;;;8.21;89.06;101816.94;4959304;28;20043;-84
2021/12/15 07:06:17;;;;;;;9.77;1.20;;;;;;;8.22;89.16;101818.59;4960477;28;20027;-83
2021/12/15 07:08:44;;;;;;;3.38;0.68;;;;;;;8.23;89.00;101806.44;4954694;28;20761;-84
2021/12/15 07:11:10;;;;;;;0.82;0.40;;;;;;;8.23;89.02;101809.22;4948315;28;20046;-83
2021/12/15 07:13:38;;;;;;;4.10;0.75;;;;;;;8.22;88.77;101804.78;4947538;28;20081;-84
2021/12/15 07:16:08;;;;;;;7.90;1.00;;;;;;;8.20;89.06;101807.06;4952121;28;20073;-84
2021/12/15 07:18:47;;;;;;;3.80;1.02;;;;;;;8.20;88.89;101802.34;4931946;28;20055;-84
2021/12/15 07:21:22;;;;;;;3.90;0.63;;;;;;;8.21;89.03;101805.91;4948462;28;20147;-84
2021/12/15 07:23:51;;;;;;;5.60;1.17;;;;;;;8.25;88.85;101809.72;4973559;28;20046;-83
2021/12/15 07:26:19;;;;;;;4.60;1.25;;;;;;;8.25;88.73;101820.75;4960246;28;20098;-83
2021/12/15 07:28:46;;;;;;;2.65;0.60;;;;;;;8.28;88.72;101817.41;4956682;28;20046;-85
2021/12/15 07:31:14;;;;;;;5.45;1.27;;;;;;;8.26;88.83;101823.19;4939034;28;20043;-84
2021/12/15 07:33:41;;;;;;;3.90;0.65;;;;;;;8.27;88.64;101819.34;4958537;28;20053;-83
2021/12/15 07:36:08;;;;;;;4.28;0.73;;;;;;;8.29;88.62;101824.56;4959041;28;20046;-83
2021/12/15 07:38:41;;;;;;;4.97;0.60;;;;;;;8.29;88.69;101822.63;4956537;28;20130;-84
2021/12/15 07:41:25;;;;;;;3.05;0.93;;;;;;;8.30;88.70;101828.97;4933183;28;20043;-84
2021/12/15 07:43:54;;;;;;;2.67;0.98;;;;;;;8.31;88.44;101836.91;4964244;28;20094;-84
2021/12/15 07:46:42;;;;;;;3.97;0.75;;;;;;;8.31;88.57;101838.88;4947749;28;20292;-83
2021/12/15 07:49:09;;;;;;;4.40;0.73;;;;;;;8.33;88.65;101839.41;4948719;28;20126;-83
2021/12/15 07:51:36;;;;;;;7.82;1.10;;;;;;;8.36;88.57;101841.56;4946328;28;20031;-83
2021/12/15 07:54:03;;;;;;;4.88;0.73;;;;;;;8.38;88.49;101847.56;4962809;28;20063;-84
2021/12/15 07:56:30;;;;;;;4.88;0.60;;;;;;;8.41;88.44;101846.97;4954347;28;20490;-82
2021/12/15 07:58:57;;;;;;;4.38;0.77;;;;;;;8.41;88.15;101841.44;4946113;28;20061;-83
2021/12/15 08:01:24;;;;;;;4.65;0.70;;;;;;;8.41;88.26;101852.50;4954209;28;20078;-84
2021/12/15 08:03:54;;;;;;;3.17;0.60;;;;;;;8.42;88.38;101852.19;4933273;28;20055;-83
2021/12/15 08:06:27;;;;;;;3.95;0.77;;;;;;;8.43;88.10;101858.53;4945906;28;20039;-83
2021/12/15 08:08:55;;;;;;;5.53;0.82;;;;;;;8.43;88.07;101851.06;4939024;28;20049;-83
2021/12/15 08:11:21;;;;;;;7.78;0.88;;;;;;;8.46;88.25;101857.91;4952051;28;20047;-83
2021/12/15 08:13:49;;;;;;;2.55;0.75;;;;;;;8.46;88.11;101855.97;4960058;28;20055;-84
2021/12/15 08:16:19;;;;;;;7.85;0.95;;;;;;;8.48;88.16;101863.94;4939426;28;20149;-83
2021/12/15 08:18:47;;;;;;;2.78;0.70;;;;;;;8.48;87.90;101867.53;4960634;28;20054;-83
2021/12/15 08:21:14;;;;;;;7.50;1.10;;;;;;;8.48;88.04;101847.38;4961749;28;20043;-83
2021/12/15 08:23:41;;;;;;;7.38;0.90;;;;;;;8.48;87.97;101863.94;4935481;28;20126;-83
2021/12/15 08:26:08;;;;;;;3.60;1.02;;;;;;;8.46;87.81;101869.78;4946143;28;20035;-84
2021/12/15 08:28:38;;;;;;;3.17;0.63;;;;;;;8.45;87.80;101870.88;4956412;28;20038;-84
2021/12/15 08:31:05;;;;;;;5.07;0.75;;;;;;;8.47;87.78;101871.41;4967237;28;20039;-85
2021/12/15 08:33:33;;;;;;;11.10;0.93;;;;;;;8.46;87.70;101886.34;4948091;28;20093;-84
2021/12/15 08:36:05;;;;;;;8.15;1.50;;;;;;;8.45;87.74;101884.69;4961327;28;20122;-84
2021/12/15 08:38:36;;;;;;;2.63;0.52;;;;;;;8.45;87.81;101892.13;4964092;28;20028;-83
2021/12/15 08:41:07;;;;;;;3.30;0.80;;;;;;;8.45;87.92;101887.44;4961993;28;20046;-84
2021/12/15 08:43:35;;;;;;;2.78;0.75;;;;;;;8.47;87.88;101878.88;4951620;28;20042;-83
2021/12/15 08:46:18;;;;;;;8.55;0.93;;;;;;;8.47;87.87;101892.69;4963476;28;20090;-83
2021/12/15 08:48:47;;;;;;;2.65;0.57;;;;;;;8.48;88.03;101888.78;4961289;28;20039;-84
2021/12/15 08:51:18;;;;;;;1.60;0.75;;;;;;;8.50;87.87;101883.78;4966760;28;20407;-84
2021/12/15 08:53:46;;;;;;;4.32;0.75;;;;;;;8.50;87.85;101887.34;4968181;28;20055;-83
2021/12/15 08:56:13;;;;;;;4.75;1.13;;;;;;;8.51;87.67;101886.25;4960229;28;20471;-83
2021/12/15 08:58:40;;;;;;;4.43;0.80;;;;;;;8.51;87.97;101886.25;4961545;28;20047;-84
2021/12/15 09:01:07;;;;;;;3.78;0.80;;;;;;;8.52;87.92;101889.81;4955891;28;20047;-84
2021/12/15 09:03:36;;;;;;;4.55;0.82;;;;;;;8.55;87.67;101903.03;4966325;28;20058;-83
2021/12/15 09:06:06;;;;;;;3.88;1.25;;;;;;;8.55;87.92;101894.75;4965624;28;20046;-85
2021/12/15 09:08:34;;;;;;;2.85;0.80;;;;;;;8.56;87.98;101901.88;4945159;28;20027;-84
2021/12/15 09:11:09;;;;;;;3.10;0.93;;;;;;;8.57;87.98;101900.78;4945910;28;20132;-85
2021/12/15 09:13:39;;;;;;;12.05;1.95;;;;;;;8.57;87.91;101906.28;4931383;28;20059;-84
2021/12/15 09:16:08;;;;;;;4.70;0.80;;;;;;;8.61;87.98;101918.34;4943640;28;20077;-84
2021/12/15 09:18:39;;;;;;;4.10;0.85;;;;;;;8.63;87.97;101909.78;4944989;28;20058;-85
2021/12/15 09:21:13;;;;;;;4.25;0.80;;;;;;;8.65;87.96;101921.34;4933500;28;20050;-84
2021/12/15 09:23:42;;;;;;;4.78;0.93;;;;;;;8.66;87.91;101921.03;4944665;28;20042;-85
2021/12/15 09:26:11;;;;;;;3.85;0.85;;;;;;;8.71;87.87;101925.66;4960463;28;20130;-84
2021/12/15 09:28:40;;;;;;;4.55;1.27;;;;;;;8.72;87.78;101933.63;4961075;28;20050;-85
2021/12/15 09:31:10;;;;;;;4.82;0.70;;;;;;;8.75;87.85;101923.91;4942809;28;20153;-86
2021/12/15 09:33:41;;;;;;;2.60;0.95;;;;;;;8.77;87.75;101935.47;4958828;28;20129;-84
2021/12/15 09:36:12;;;;;;;5.10;0.90;;;;;;;8.82;87.76;101940.88;4938185;28;20035;-83
2021/12/15 09:38:42;;;;;;;5.63;1.20;;;;;;;8.83;87.61;101943.34;4956674;28;20093;-84
2021/12/15 09:41:12;;;;;;;3.45;1.35;;;;;;;8.86;87.50;101947.44;4938209;28;20095;-84
2021/12/15 09:43:40;;;;;;;9.15;1.15;;;;;;;8.88;87.55;101939.66;4957595;28;20055;-84
2021/12/15 09:57:48;;;;;;;4.30;0.63;;;;;;;9.03;87.38;101959.53;4953830;28;20038;-84
2021/12/15 10:03:14;;;;;;;10.40;1.65;;;;;;;9.15;87.32;101967.34;4947113;28;20564;-86
2021/12/15 10:11:42;;;;;;;5.93;0.93;;;;;;;9.26;86.95;101977.06;4954823;28;20031;-85
2021/12/15 10:19:51;;;;;;;2.17;0.80;;;;;;;9.41;86.94;101996.09;4952354;28;20057;-85
2021/12/15 10:22:40;;;;;;;4.68;0.75;;;;;;;9.46;86.61;101997.94;4931475;28;20059;-85
2021/12/15 10:25:15;;;;;;;6.72;1.13;;;;;;;9.51;86.56;102009.72;4936825;28;20058;-84
2021/12/15 10:27:57;;;;;;;6.85;1.00;;;;;;;9.55;86.54;102001.63;4955741;28;20051;-84
2021/12/15 10:30:34;;;;;;;6.78;0.90;;;;;;;9.61;86.39;102019.75;4943659;28;20042;-84
2021/12/15 10:33:06;;;;;;;3.90;0.70;;;;;;;9.65;86.07;102026.31;4949185;28;20043;-85
2021/12/15 10:36:05;;;;;;;5.07;0.90;;;;;;;9.68;85.77;102028.47;4949236;28;20039;-85
2021/12/15 10:38:42;;;;;;;1.98;0.70;;;;;;;9.65;85.71;102035.44;4949360;28;20059;-85
2021/12/15 10:41:12;;;;;;;6.32;0.90;;;;;;;9.69;85.90;102032.84;4964611;28;20051;-84
2021/12/15 10:43:45;;;;;;;3.55;1.00;;;;;;;9.71;85.96;102027.84;4948714;28;20054;-84
2021/12/15 10:46:20;;;;;;;4.85;0.98;;;;;;;9.76;85.97;102041.56;4941802;28;20410;-83
2021/12/15 10:49:00;;;;;;;3.55;1.48;;;;;;;9.84;86.13;102046.38;4940207;28;20135;-84
2021/12/15 10:51:44;;;;;;;2.65;1.08;;;;;;;9.91;86.11;102046.78;4942943;28;20046;-83
2021/12/15 10:54:13;;;;;;;5.40;1.02;;;;;;;9.98;85.96;102061.00;4942671;28;20057;-83
2021/12/15 10:56:48;;;;;;;7.70;2.05;;;;;;;10.02;85.86;102052.91;4959421;28;20041;-82
2021/12/15 10:59:15;;;;;;;4.60;0.82;;;;;;;10.02;85.64;102056.50;4959442;28;20050;-83
2021/12/15 11:01:55;;;;;;;7.00;0.80;;;;;;;10.00;85.18;102063.47;4959220;28;20422;-83
2021/12/15 11:04:28;;;;;;;4.88;0.60;;;;;;;9.96;85.23;102057.72;4939943;28;20035;-83
2021/12/15 11:07:03;;;;;;;3.42;0.88;;;;;;;9.96;84.94;102059.66;4960198;28;20043;-84
2021/12/15 11:09:45;;;;;;;4.40;0.47;;;;;;;9.95;84.91;102061.63;4957300;28;20165;-82
2021/12/15 11:12:24;;;;;;;3.20;0.73;;;;;;;9.96;84.76;102060.50;4954227;28;20034;-83
2021/12/15 11:14:54;;;;;;;3.28;0.57;;;;;;;9.99;85.17;102054.34;4960344;28;20132;-82
2021/12/15 11:17:26;;;;;;;2.85;0.50;;;;;;;10.00;85.15;102058.75;4945099;28;20078;-83
2021/12/15 11:19:57;;;;;;;5.55;0.65;;;;;;;10.00;85.18;102050.47;4958086;28;20043;-84
2021/12/15 11:22:31;;;;;;;1.92;0.60;;;;;;;10.02;85.07;102058.44;4959867;28;20078;-82
2021/12/15 11:25:00;;;;;;;2.80;1.10;;;;;;;10.02;85.11;102059.25;4954271;28;20090;-82
2021/12/15 11:27:26;;;;;;;3.33;1.20;;;;;;;10.01;84.90;102060.38;4959919;28;20125;-82
2021/12/15 11:29:53;;;;;;;8.38;1.42;;;;;;;10.02;84.74;102061.19;4958712;28;20038;-83
2021/12/15 11:32:37;;;;;;;2.70;0.73;;;;;;;10.01;84.99;102056.78;4957255;28;20035;-82
2021/12/15 11:35:07;;;;;;;4.93;0.63;;;;;;;10.02;84.78;102055.66;4940628;28;20550;-81
2021/12/15 11:37:52;;;;;;;2.92;0.60;;;;;;;10.03;84.77;102062.84;4941841;28;20045;-82
2021/12/15 11:40:42;;;;;;;3.50;1.02;;;;;;;10.03;84.65;102054.56;4958237;28;20381;-82
2021/12/15 11:43:26;;;;;;;2.78;0.63;;;;;;;10.04;84.82;102058.94;4941148;28;20047;-82
2021/12/15 11:45:53;;;;;;;3.85;1.45;;;;;;;10.04;84.77;102057.00;4929872;28;20888;-82
2021/12/15 11:48:33;;;;;;;7.10;0.77;;;;;;;10.04;84.84;102057.00;4926543;28;20042;-82
2021/12/15 11:51:05;;;;;;;4.60;0.90;;;;;;;10.02;84.91;102053.72;4932634;28;20046;-84
2021/12/15 11:53:32;;;;;;;6.55;1.02;;;;;;;10.01;85.03;102057.59;4954747;28;20043;-83
2021/12/15 11:56:34;;;;;;;5.28;0.95;;;;;;;10.02;85.14;102052.91;4946470;28;20055;-83
2021/12/15 11:59:13;;;;;;;1.30;0.57;;;;;;;10.02;85.04;102062.03;4937183;28;21629;-82
2021/12/15 12:01:45;;;;;;;7.00;2.65;;;;;;;10.04;85.10;102050.63;4915143;28;20047;-83
2021/12/15 12:04:24;;;;;;;6.30;0.75;;;;;;;10.05;85.09;102063.34;4939268;28;20051;-83
2021/12/15 12:07:08;;;;;;;6.32;1.20;;;;;;;10.07;85.05;102055.56;4957126;28;20050;-82
2021/12/15 12:09:38;;;;;;;6.85;1.35;;;;;;;10.07;85.05;102059.16;4956070;28;20572;-84
2021/12/15 12:12:06;;;;;;;3.05;0.80;;;;;;;10.08;84.94;102049.72;4954909;28;20039;-83
2021/12/15 12:14:49;;;;;;;6.60;0.98;;;;;;;10.09;85.03;102059.66;4959127;28;20043;-82
2021/12/15 12:17:28;;;;;;;5.88;0.90;;;;;;;10.11;84.86;102056.59;4948164;28;20055;-82
2021/12/15 12:19:58;;;;;;;5.57;0.60;;;;;;;10.12;84.96;102053.53;4919182;28;20043;-82
2021/12/15 12:22:29;;;;;;;7.43;1.58;;;;;;;10.11;84.79;102064.88;4937796;28;20054;-82
2021/12/15 12:25:04;;;;;;;2.20;1.02;;;;;;;10.13;84.83;102059.91;4915093;28;20051;-82
2021/12/15 12:27:32;;;;;;;4.05;0.77;;;;;;;10.14;84.80;102061.53;4937576;28;20043;-81
2021/12/15 12:30:05;;;;;;;2.88;0.85;;;;;;;10.16;85.08;102065.63;4947148;28;20035;-82
2021/12/15 12:32:34;;;;;;;2.42;0.65;;;;;;;10.18;84.97;102057.00;4952339;28;20490;-82
2021/12/15 12:35:06;;;;;;;3.90;0.50;;;;;;;10.20;84.83;102060.28;4941024;28;20045;-83
2021/12/15 12:37:35;;;;;;;3.03;0.50;;;;;;;10.20;84.66;102066.63;4925607;28;20055;-83
2021/12/15 12:40:17;;;;;;;6.10;2.83;;;;;;;10.23;84.37;102059.66;4963411;28;20043;-82
2021/12/15 12:42:46;;;;;;;3.30;0.73;;;;;;;10.24;84.65;102051.06;4947251;28;20446;-83
2021/12/15 12:45:33;;;;;;;1.80;0.50;;;;;;;10.26;84.46;102068.16;4949044;28;20075;-83
2021/12/15 12:48:30;;;;;;;4.15;0.70;;;;;;;10.25;84.47;102069.28;4932626;28;20046;-84
2021/12/15 12:59:42;;;;;;;1.75;0.47;;;;;;;10.27;84.38;102078.09;4962175;28;21051;-83
2021/12/15 13:02:45;;;;;;;1.95;0.38;;;;;;;10.29;84.19;102078.63;4959989;28;20152;-83
2021/12/15 13:05:30;;;;;;;2.72;0.35;;;;;;;10.29;83.88;102075.84;4955139;28;20082;-84
2021/12/15 13:08:01;;;;;;;5.20;1.02;;;;;;;10.31;84.24;102092.97;4942768;28;20043;-83
2021/12/15 13:10:47;;;;;;;3.03;0.70;;;;;;;10.31;83.82;102094.91;4966620;28;20039;-83